weather.gov     
National Weather Service

Terminal Aerodrome Forecast
NWS Homepage
This page is being discontinued on March 12, 2014.
The same data is available at this site. Please update your bookmarks.
Thank you, and we apologize for the inconvenience.
Please send an email to SR-SRH.Webmaster@noaa.gov with any concerns.


Current Version
Previous Version:    01  02  03  04  05  06  07  08  09  10  11  12  13  14  15  16  17  18  19  20  21  22  23  24  25  26  27  28  29  30  
   31  
[Printable]
800
FTUS43 KARX 210918 AAA
TAFLSE
TAF AMD
KLSE 210918Z 2109/2206 16005KT P6SM VCSH BKN100
     FM211100 18006KT P6SM BKN080
      TEMPO 2111/2115 4SM -SHRA BKN045CB
     FM211600 27007KT P6SM BKN045
     FM211800 31012G21KT P6SM SCT045
     FM220100 32011KT P6SM SKC=




800
FTUS43 KARX 210918 AAA
TAFLSE
TAF AMD
KLSE 210918Z 2109/2206 16005KT P6SM VCSH BKN100
     FM211100 18006KT P6SM BKN080
      TEMPO 2111/2115 4SM -SHRA BKN045CB
     FM211600 27007KT P6SM BKN045
     FM211800 31012G21KT P6SM SCT045
     FM220100 32011KT P6SM SKC=


U.S. Dept. of Commerce
NOAA National Weather Service
1325 East West Highway
Silver Spring, MD 20910
E-mail: w-nws.webmaster@noaa.gov
Page last modified: May 16, 2007
NATIONAL WEATHER SERVICE: for Safety, for Work, for Fun - FOR LIFE